sim
Sign-in with your pilot id or email,
or register
Callsign
Passwort

Schedule Details

Flight Number: EWG1787 (2)
Departure: Palma de Mallorca Airport (LEPA) at 15:40
Arrival: Munich Airport (EDDM) at 17:50
Route: Eurowings Passenger Schedule. Enter filed route here before submitting Pirep.

Weather Information
Getting current METAR information for LEPA 291630Z 16007KT 130V210 9999 BKN037 25/16 Q1017 NOSIG
Getting current METAR information for EDDM 291650Z 26007KT 9999 BKN017 11/09 Q1019 NOSIG

Schedule Frequency

Route Map